Time;durP1;ratioP1;P1;durP2;ratioP2;P2;SDS_P1;SDS_P2;PMS_P1;PMS_P2;Temp;Humidity;BMP_temperature;BMP_pressure;BME280_temperature;BME280_humidity;BME280_pressure;Samples;Min_cycle;Max_cycle;Signal;HPM_P1;HPM_P2
2023/06/13 00:29:55;;;;;;;11.10;7.03;;;20.60;99.90;;;;;;1591409;28;22038;-67
2023/06/13 00:32:59;;;;;;;11.68;7.70;;;20.60;99.90;;;;;;5070774;28;20064;-72
2023/06/13 00:36:04;;;;;;;9.23;7.40;;;20.60;99.90;;;;;;5070069;28;20051;-72
2023/06/13 00:39:08;;;;;;;16.73;8.20;;;20.70;99.90;;;;;;5069933;28;20103;-73
2023/06/13 00:42:12;;;;;;;13.02;7.90;;;20.70;99.90;;;;;;5072498;28;20397;-74
2023/06/13 00:45:24;;;;;;;9.65;7.28;;;20.60;99.90;;;;;;5073861;28;20047;-74
2023/06/13 00:48:29;;;;;;;11.38;7.78;;;20.60;99.90;;;;;;5073908;28;20401;-74
2023/06/13 00:51:36;;;;;;;12.93;7.22;;;20.50;99.90;;;;;;5074803;28;20048;-71
2023/06/13 00:54:40;;;;;;;11.10;7.55;;;20.60;99.90;;;;;;5073705;28;20048;-74
2023/06/13 00:57:44;;;;;;;12.52;7.47;;;20.50;99.90;;;;;;5074362;28;20039;-74
2023/06/13 01:00:52;;;;;;;13.30;7.90;;;20.50;99.90;;;;;;5074684;28;20055;-73
2023/06/13 01:03:59;;;;;;;10.75;8.55;;;20.40;99.90;;;;;;5074678;28;20392;-72
2023/06/13 01:07:05;;;;;;;14.63;9.10;;;20.50;99.90;;;;;;5074171;28;20408;-72
2023/06/13 01:10:10;;;;;;;16.50;8.48;;;20.40;99.90;;;;;;5074036;28;20043;-73
2023/06/13 01:13:18;;;;;;;13.68;7.85;;;20.40;99.90;;;;;;5074372;28;20067;-73
2023/06/13 01:16:34;;;;;;;15.95;8.80;;;20.40;99.90;;;;;;5073912;28;20043;-73
2023/06/13 01:19:41;;;;;;;13.20;7.72;;;20.50;99.90;;;;;;5073869;28;20039;-73
2023/06/13 01:23:10;;;;;;;11.65;7.78;;;20.40;99.90;;;;;;5074065;28;20048;-73
2023/06/13 01:26:34;;;;;;;10.55;7.90;;;20.50;99.90;;;;;;5073900;28;20047;-73
2023/06/13 01:29:40;;;;;;;14.13;7.20;;;20.40;99.90;;;;;;5073038;28;20044;-73
2023/06/13 01:32:46;;;;;;;14.82;7.15;;;20.30;99.90;;;;;;5081576;28;20063;-73
2023/06/13 01:35:51;;;;;;;15.90;7.15;;;20.30;99.90;;;;;;5081635;28;20054;-73
2023/06/13 01:38:55;;;;;;;13.05;7.97;;;20.30;99.90;;;;;;5081530;28;20388;-73
2023/06/13 01:41:59;;;;;;;11.52;7.20;;;20.30;99.90;;;;;;5082163;28;20060;-73
2023/06/13 01:45:04;;;;;;;13.95;7.57;;;20.30;99.90;;;;;;5081424;28;20042;-73
2023/06/13 01:48:10;;;;;;;10.50;7.20;;;20.20;99.90;;;;;;5081266;28;20051;-73
2023/06/13 01:51:19;;;;;;;8.85;6.65;;;20.20;99.90;;;;;;5093876;28;20043;-73
2023/06/13 01:54:25;;;;;;;13.88;6.72;;;20.20;99.90;;;;;;5080156;28;20047;-73
2023/06/13 01:57:39;;;;;;;13.10;7.07;;;20.30;99.90;;;;;;5081147;28;20047;-73
2023/06/13 02:00:45;;;;;;;12.40;7.13;;;20.20;99.90;;;;;;5081286;28;20055;-73
2023/06/13 02:03:50;;;;;;;11.60;6.60;;;20.30;99.90;;;;;;5093322;28;20043;-73
2023/06/13 02:06:54;;;;;;;8.73;6.00;;;20.30;99.90;;;;;;5093495;28;20059;-73
2023/06/13 02:09:57;;;;;;;11.00;6.47;;;20.30;99.90;;;;;;5057846;28;20043;-73
2023/06/13 02:13:01;;;;;;;10.85;7.18;;;20.30;99.90;;;;;;5093355;28;20046;-73
2023/06/13 02:16:06;;;;;;;9.15;6.55;;;20.20;99.90;;;;;;5093324;28;20251;-73
2023/06/13 02:19:13;;;;;;;9.18;7.18;;;20.20;99.90;;;;;;5080930;28;20035;-73
2023/06/13 02:22:18;;;;;;;9.43;6.50;;;20.10;99.90;;;;;;5092009;28;20506;-73
2023/06/13 02:25:22;;;;;;;10.70;6.82;;;20.10;99.90;;;;;;5080436;28;20039;-73
2023/06/13 02:28:26;;;;;;;13.35;6.35;;;20.10;99.90;;;;;;5093242;28;20051;-73
2023/06/13 02:31:30;;;;;;;11.20;6.15;;;20.00;99.90;;;;;;5080112;28;20506;-73
2023/06/13 02:34:33;;;;;;;10.98;6.03;;;20.00;99.90;;;;;;5080284;28;20495;-73
2023/06/13 02:37:37;;;;;;;11.68;6.75;;;20.00;99.90;;;;;;5080272;28;20051;-73
2023/06/13 02:40:41;;;;;;;11.98;5.20;;;20.00;99.90;;;;;;5080109;28;20338;-73
2023/06/13 02:43:47;;;;;;;11.38;6.10;;;19.80;99.90;;;;;;5080577;28;20043;-73
2023/06/13 02:46:51;;;;;;;10.45;5.28;;;19.80;99.90;;;;;;5092495;28;20047;-73
2023/06/13 02:49:56;;;;;;;9.93;6.13;;;19.80;99.90;;;;;;5079984;28;20047;-73
2023/06/13 02:53:01;;;;;;;8.70;5.63;;;19.80;99.90;;;;;;5080191;28;20047;-73
2023/06/13 02:56:06;;;;;;;12.07;6.00;;;19.70;99.90;;;;;;5092602;28;20035;-74
2023/06/13 02:59:10;;;;;;;8.70;6.22;;;19.70;99.90;;;;;;5079825;28;20047;-74
2023/06/13 03:02:16;;;;;;;8.35;5.75;;;19.70;99.90;;;;;;5092468;28;20039;-74
2023/06/13 03:05:20;;;;;;;8.10;5.35;;;19.70;99.90;;;;;;5079600;28;20059;-73
2023/06/13 03:08:27;;;;;;;13.82;5.70;;;19.90;99.90;;;;;;5079843;28;20396;-74
2023/06/13 03:11:34;;;;;;;9.07;5.05;;;19.90;99.90;;;;;;5079844;28;20503;-73
2023/06/13 03:14:38;;;;;;;8.65;4.75;;;20.00;99.90;;;;;;5079524;28;20043;-73
2023/06/13 03:17:42;;;;;;;7.18;5.95;;;20.10;99.90;;;;;;5079415;28;20396;-72
2023/06/13 03:20:49;;;;;;;11.63;5.50;;;20.20;99.90;;;;;;5079165;28;20038;-72
2023/06/13 03:23:58;;;;;;;10.35;5.90;;;20.20;99.90;;;;;;5079585;28;20047;-72
2023/06/13 03:27:01;;;;;;;10.13;5.93;;;20.20;99.90;;;;;;5091779;28;20046;-73
2023/06/13 03:30:07;;;;;;;13.38;6.28;;;20.30;99.90;;;;;;5079072;28;20388;-73
2023/06/13 03:33:12;;;;;;;11.45;6.47;;;20.20;99.90;;;;;;5079367;28;20063;-72
2023/06/13 03:36:20;;;;;;;9.90;6.15;;;20.20;99.90;;;;;;5067734;28;20538;-73
2023/06/13 03:39:24;;;;;;;9.75;5.60;;;20.20;99.90;;;;;;5091719;28;20064;-73
2023/06/13 03:42:28;;;;;;;9.93;5.82;;;20.20;99.90;;;;;;5079074;28;20047;-74
2023/06/13 03:45:32;;;;;;;9.35;6.15;;;20.20;99.90;;;;;;5090506;28;20086;-74
2023/06/13 03:48:37;;;;;;;10.45;6.90;;;20.20;99.90;;;;;;5078976;28;20063;-73
2023/06/13 03:51:42;;;;;;;10.15;6.53;;;20.20;99.90;;;;;;5079262;28;20039;-73
2023/06/13 03:54:46;;;;;;;15.70;7.55;;;20.20;99.90;;;;;;5091337;28;20059;-73
2023/06/13 03:57:50;;;;;;;9.70;6.05;;;20.30;99.90;;;;;;5091427;28;20035;-73
2023/06/13 04:00:54;;;;;;;15.75;7.10;;;20.30;99.90;;;;;;5078871;28;20419;-73
2023/06/13 04:03:58;;;;;;;8.68;5.68;;;20.10;99.90;;;;;;5078867;28;20111;-73
2023/06/13 04:07:05;;;;;;;11.95;6.53;;;20.10;99.90;;;;;;5078987;28;20055;-71
2023/06/13 04:10:10;;;;;;;11.32;5.72;;;20.20;99.90;;;;;;5090974;28;20043;-73
2023/06/13 04:13:14;;;;;;;10.05;5.97;;;20.40;99.90;;;;;;5091166;28;20043;-75
2023/06/13 04:16:19;;;;;;;11.35;6.15;;;20.40;99.90;;;;;;5078043;28;20098;-73
2023/06/13 04:19:26;;;;;;;16.58;6.65;;;20.30;99.90;;;;;;5078342;28;20062;-74
2023/06/13 04:22:31;;;;;;;12.23;6.53;;;20.40;99.90;;;;;;5091189;28;20392;-74
2023/06/13 04:25:35;;;;;;;12.30;6.53;;;20.40;99.90;;;;;;5091064;28;20051;-73
2023/06/13 04:28:40;;;;;;;19.92;6.85;;;20.30;99.90;;;;;;5078397;28;20404;-72
2023/06/13 04:31:44;;;;;;;12.73;6.78;;;20.30;99.90;;;;;;5090580;28;20052;-72
2023/06/13 04:34:52;;;;;;;14.30;6.70;;;20.50;99.90;;;;;;5091067;28;20043;-73
2023/06/13 04:37:57;;;;;;;11.05;6.15;;;20.70;99.90;;;;;;5078333;28;20066;-73
2023/06/13 04:41:02;;;;;;;11.55;6.30;;;20.90;99.90;;;;;;5091083;28;20047;-73
2023/06/13 04:44:09;;;;;;;8.65;6.03;;;21.10;99.90;;;;;;5090703;28;20039;-73
2023/06/13 04:47:13;;;;;;;11.23;6.38;;;21.20;99.90;;;;;;5090812;28;20063;-72
2023/06/13 04:50:21;;;;;;;13.65;6.57;;;21.20;99.90;;;;;;5090810;28;20495;-72
2023/06/13 04:53:29;;;;;;;14.80;6.63;;;21.30;99.90;;;;;;5079711;28;20051;-72
2023/06/13 04:56:34;;;;;;;8.82;5.63;;;21.50;99.90;;;;;;5090510;28;20494;-72
2023/06/13 04:59:40;;;;;;;9.75;5.65;;;21.50;99.90;;;;;;5090962;28;20043;-73
2023/06/13 05:02:45;;;;;;;13.35;6.05;;;21.50;99.90;;;;;;5078527;28;20495;-73
2023/06/13 05:05:50;;;;;;;11.88;6.30;;;21.70;99.90;;;;;;5090778;28;20039;-73
2023/06/13 05:08:54;;;;;;;15.48;6.43;;;21.80;99.90;;;;;;5090761;28;20051;-73
2023/06/13 05:11:58;;;;;;;14.25;6.78;;;21.90;99.90;;;;;;5090826;28;20043;-73
2023/06/13 05:15:02;;;;;;;14.18;7.93;;;22.10;99.90;;;;;;5090730;28;20479;-60
2023/06/13 05:18:08;;;;;;;15.90;7.70;;;22.30;99.90;;;;;;5090189;28;20043;-61
2023/06/13 05:21:16;;;;;;;17.73;7.45;;;22.10;99.70;;;;;;5090789;28;20055;-61
2023/06/13 05:24:20;;;;;;;13.77;7.32;;;22.10;99.90;;;;;;5090280;28;20035;-61
2023/06/13 05:27:25;;;;;;;18.23;7.80;;;22.40;99.90;;;;;;5090708;28;20051;-62
2023/06/13 05:30:30;;;;;;;14.93;7.28;;;22.60;99.20;;;;;;5093942;28;20043;-61
2023/06/13 05:33:34;;;;;;;12.73;6.13;;;22.60;99.60;;;;;;5081671;28;20039;-61
2023/06/13 05:36:38;;;;;;;8.85;6.20;;;22.80;99.60;;;;;;5093918;28;20110;-62
2023/06/13 05:39:42;;;;;;;11.00;5.70;;;22.80;98.70;;;;;;5094347;28;20043;-61
2023/06/13 05:42:46;;;;;;;9.20;6.32;;;22.80;99.10;;;;;;5093768;28;20490;-61
2023/06/13 05:45:50;;;;;;;12.48;5.88;;;23.20;99.00;;;;;;5093975;28;20039;-60
2023/06/13 05:48:53;;;;;;;19.20;6.07;;;23.40;98.80;;;;;;5093726;28;20546;-60
2023/06/13 05:51:57;;;;;;;11.18;5.72;;;23.60;98.50;;;;;;5093893;28;20495;-61
2023/06/13 05:55:04;;;;;;;12.80;4.53;;;23.90;97.60;;;;;;5093546;28;20043;-61
2023/06/13 05:58:08;;;;;;;11.48;4.90;;;24.00;97.70;;;;;;5093751;28;20054;-60
2023/06/13 06:01:12;;;;;;;18.85;5.22;;;24.20;96.70;;;;;;5093694;28;20043;-61
2023/06/13 06:04:15;;;;;;;13.93;5.18;;;24.30;96.70;;;;;;5093484;28;20047;-62
2023/06/13 06:07:19;;;;;;;7.78;4.40;;;24.50;96.70;;;;;;5093552;28;20055;-60
2023/06/13 06:10:23;;;;;;;9.65;4.13;;;24.60;96.10;;;;;;5092860;28;20043;-61
2023/06/13 06:13:27;;;;;;;6.38;3.53;;;24.50;95.70;;;;;;5092000;28;20063;-60
2023/06/13 06:16:31;;;;;;;5.78;3.38;;;24.40;95.30;;;;;;5093385;28;20047;-60
2023/06/13 06:19:35;;;;;;;9.68;3.88;;;24.40;95.40;;;;;;5093684;28;20051;-60
2023/06/13 06:22:39;;;;;;;6.68;3.63;;;24.40;95.40;;;;;;5092891;28;20065;-61
2023/06/13 06:25:43;;;;;;;13.00;4.38;;;24.50;95.70;;;;;;5092993;28;20059;-60
2023/06/13 06:28:47;;;;;;;10.15;4.35;;;24.50;95.60;;;;;;5092410;28;20126;-61
2023/06/13 06:31:50;;;;;;;16.33;5.57;;;24.50;95.40;;;;;;5092592;28;20063;-62
2023/06/13 06:34:54;;;;;;;10.50;5.18;;;24.50;95.80;;;;;;5092690;28;20043;-60
2023/06/13 06:37:59;;;;;;;18.17;6.65;;;24.40;96.30;;;;;;5092614;28;20043;-64
2023/06/13 06:41:02;;;;;;;15.35;6.72;;;24.30;96.90;;;;;;5092268;28;20050;-60
2023/06/13 06:44:06;;;;;;;15.82;7.20;;;24.40;97.40;;;;;;5092843;28;20051;-61
2023/06/13 06:47:10;;;;;;;18.20;7.10;;;24.70;97.40;;;;;;5092308;28;20054;-60
2023/06/13 06:50:14;;;;;;;16.65;7.53;;;24.90;96.80;;;;;;5092572;28;20039;-61
2023/06/13 06:53:18;;;;;;;13.23;6.55;;;25.00;96.90;;;;;;5092406;28;20071;-61
2023/06/13 06:56:22;;;;;;;17.50;6.80;;;25.20;95.80;;;;;;5092001;28;20039;-60
2023/06/13 06:59:26;;;;;;;10.30;5.13;;;25.60;95.60;;;;;;5092407;28;20067;-61
2023/06/13 07:02:30;;;;;;;11.13;4.95;;;26.00;94.60;;;;;;5092315;28;20043;-60
2023/06/13 07:05:35;;;;;;;11.93;4.38;;;26.20;93.80;;;;;;5092434;28;20047;-62
2023/06/13 07:08:39;;;;;;;7.85;4.53;;;26.20;93.50;;;;;;5091889;28;20055;-61
2023/06/13 07:11:43;;;;;;;10.65;4.03;;;26.40;93.40;;;;;;5092414;28;20055;-60
2023/06/13 07:14:47;;;;;;;12.32;4.25;;;26.50;93.20;;;;;;5092458;28;20050;-62
2023/06/13 07:17:51;;;;;;;12.88;5.95;;;26.60;93.30;;;;;;5091994;28;20067;-62
2023/06/13 07:20:56;;;;;;;11.98;6.90;;;26.70;92.70;;;;;;5091684;28;20475;-61
2023/06/13 07:24:00;;;;;;;12.18;6.38;;;26.80;92.90;;;;;;5091747;28;20051;-62
2023/06/13 07:27:05;;;;;;;15.63;7.00;;;27.00;93.00;;;;;;5091651;28;20059;-61
2023/06/13 07:30:10;;;;;;;13.57;6.28;;;26.80;92.90;;;;;;5091425;28;20550;-61
2023/06/13 07:33:14;;;;;;;11.40;6.72;;;26.70;93.30;;;;;;5091416;28;20047;-61
2023/06/13 07:36:19;;;;;;;8.80;6.07;;;26.60;93.40;;;;;;5091832;28;20506;-62
2023/06/13 07:39:23;;;;;;;9.15;5.47;;;26.70;93.20;;;;;;5091227;28;20395;-62
2023/06/13 07:42:27;;;;;;;8.85;5.07;;;26.60;93.00;;;;;;5091401;28;20039;-61
2023/06/13 07:45:30;;;;;;;11.63;6.03;;;26.60;93.20;;;;;;5091612;28;20039;-62
2023/06/13 07:48:35;;;;;;;14.93;5.70;;;26.70;93.40;;;;;;5091177;28;20106;-61
2023/06/13 07:51:39;;;;;;;8.70;5.22;;;26.70;93.00;;;;;;5090160;28;20110;-61
2023/06/13 07:54:43;;;;;;;18.00;6.40;;;26.70;93.20;;;;;;5091368;28;20047;-61
2023/06/13 07:57:47;;;;;;;14.18;5.50;;;26.70;93.20;;;;;;5091331;28;20302;-61
2023/06/13 08:00:52;;;;;;;12.65;5.00;;;26.70;93.50;;;;;;5091261;28;20543;-62
2023/06/13 08:03:56;;;;;;;8.18;3.90;;;26.70;93.10;;;;;;5091246;28;20376;-61
2023/06/13 08:07:00;;;;;;;4.22;3.35;;;26.80;92.30;;;;;;5091353;28;20047;-61
2023/06/13 08:10:04;;;;;;;9.82;5.00;;;27.00;92.10;;;;;;5091094;28;20506;-61
2023/06/13 08:13:08;;;;;;;6.28;3.30;;;27.20;92.00;;;;;;5091259;28;20043;-62
2023/06/13 08:16:15;;;;;;;8.68;3.65;;;27.60;91.70;;;;;;5078718;28;20055;-61
2023/06/13 08:19:19;;;;;;;8.40;3.92;;;27.90;91.20;;;;;;5091207;28;20035;-63
2023/06/13 08:22:26;;;;;;;6.65;3.33;;;28.20;90.60;;;;;;5091160;28;20054;-62
2023/06/13 08:25:30;;;;;;;7.28;3.70;;;28.40;90.30;;;;;;5090918;28;20039;-63
2023/06/13 08:28:34;;;;;;;5.28;3.03;;;28.70;89.90;;;;;;5090568;28;20079;-62
2023/06/13 08:31:40;;;;;;;7.05;3.05;;;28.90;88.30;;;;;;5090739;28;20059;-62
2023/06/13 08:34:47;;;;;;;3.88;3.50;;;29.00;88.00;;;;;;5078590;28;20047;-62
2023/06/13 08:37:52;;;;;;;8.30;4.15;;;28.90;87.00;;;;;;5090688;28;20047;-62
2023/06/13 08:40:56;;;;;;;8.43;3.88;;;28.80;86.90;;;;;;5090627;28;20051;-62
2023/06/13 08:44:01;;;;;;;6.10;2.78;;;28.60;87.10;;;;;;5090481;28;20503;-61
2023/06/13 08:47:05;;;;;;;7.47;3.85;;;28.40;87.30;;;;;;5090667;28;20494;-62
2023/06/13 08:50:11;;;;;;;7.43;3.80;;;28.10;88.40;;;;;;5090355;28;20051;-62
2023/06/13 08:53:17;;;;;;;6.32;3.60;;;27.90;88.90;;;;;;5078187;28;20043;-62
2023/06/13 08:56:23;;;;;;;10.73;4.18;;;27.80;88.70;;;;;;5090191;28;20043;-61
2023/06/13 08:59:27;;;;;;;7.05;3.10;;;27.60;89.00;;;;;;5090432;28;20050;-62
2023/06/13 09:02:32;;;;;;;5.75;3.03;;;27.50;89.60;;;;;;5091338;28;20047;-63
2023/06/13 09:05:38;;;;;;;8.57;3.75;;;27.40;90.00;;;;;;5094811;28;20055;-64
2023/06/13 09:08:42;;;;;;;4.43;3.13;;;27.20;90.00;;;;;;5094376;28;20059;-66
2023/06/13 09:11:49;;;;;;;3.53;2.70;;;27.10;90.30;;;;;;5094406;28;20039;-66
2023/06/13 09:14:53;;;;;;;6.10;3.00;;;27.10;90.60;;;;;;5094726;28;20054;-65
2023/06/13 09:17:57;;;;;;;8.25;4.10;;;27.00;90.50;;;;;;5081609;28;20392;-64
2023/06/13 09:21:02;;;;;;;8.57;3.88;;;27.00;90.50;;;;;;5093400;28;20047;-64
2023/06/13 09:24:06;;;;;;;6.18;3.60;;;27.00;90.80;;;;;;5093519;28;20043;-64
2023/06/13 09:27:12;;;;;;;6.75;3.47;;;27.00;91.00;;;;;;5091332;28;20042;-64
2023/06/13 09:30:16;;;;;;;8.63;3.40;;;26.90;90.70;;;;;;5091313;28;20059;-63
2023/06/13 09:33:22;;;;;;;12.20;3.53;;;26.90;91.00;;;;;;5091692;28;20059;-65
2023/06/13 09:36:27;;;;;;;5.13;2.60;;;27.00;90.80;;;;;;5091908;28;20055;-64
2023/06/13 09:39:31;;;;;;;4.82;3.13;;;26.90;90.00;;;;;;5090778;28;20443;-64
2023/06/13 09:42:35;;;;;;;5.85;2.58;;;27.00;90.00;;;;;;5091160;28;20054;-63
2023/06/13 09:45:43;;;;;;;9.85;3.55;;;27.00;88.30;;;;;;5092155;28;20106;-64
2023/06/13 09:48:47;;;;;;;10.65;3.25;;;26.90;89.00;;;;;;5092434;28;20055;-64
2023/06/13 09:51:52;;;;;;;6.72;4.00;;;26.90;90.30;;;;;;5093043;28;20035;-63
2023/06/13 09:54:57;;;;;;;8.05;4.35;;;26.80;90.90;;;;;;5093354;28;20054;-63
2023/06/13 09:58:01;;;;;;;7.00;4.03;;;26.80;91.00;;;;;;5093531;28;20043;-64
2023/06/13 10:01:12;;;;;;;5.43;3.15;;;26.80;90.90;;;;;;5093254;28;20050;-63
2023/06/13 10:04:16;;;;;;;9.53;4.20;;;26.80;91.10;;;;;;5093581;28;20054;-64
2023/06/13 10:07:20;;;;;;;8.18;5.05;;;26.70;91.20;;;;;;5093140;28;20510;-63
2023/06/13 10:10:24;;;;;;;9.07;5.50;;;26.70;91.60;;;;;;5093359;28;20294;-64
2023/06/13 10:13:31;;;;;;;9.50;4.35;;;26.60;91.70;;;;;;5092898;28;20404;-64
2023/06/13 10:16:43;;;;;;;11.38;4.43;;;26.50;91.50;;;;;;5092980;28;20051;-63
2023/06/13 10:19:52;;;;;;;9.38;4.93;;;26.40;91.60;;;;;;5092342;28;20062;-64
2023/06/13 10:22:57;;;;;;;9.75;4.47;;;26.40;91.40;;;;;;5091815;28;20075;-64
2023/06/13 10:26:08;;;;;;;10.98;5.35;;;26.40;91.40;;;;;;5091331;28;20542;-66
2023/06/13 10:29:31;;;;;;;6.40;4.82;;;26.40;91.50;;;;;;5090742;28;20059;-66
2023/06/13 10:33:00;;;;;;;11.98;4.82;;;26.40;91.90;;;;;;5092233;28;20043;-67
2023/06/13 10:36:20;;;;;;;6.20;4.25;;;26.50;91.80;;;;;;5092253;28;20055;-64
2023/06/13 10:40:04;;;;;;;8.60;5.50;;;26.50;91.70;;;;;;5081081;28;20210;-65
2023/06/13 10:43:12;;;;;;;7.05;4.47;;;26.60;91.60;;;;;;5090564;28;20443;-65
2023/06/13 10:46:16;;;;;;;6.75;4.38;;;26.70;91.50;;;;;;5090494;28;20047;-66
2023/06/13 10:49:21;;;;;;;7.32;4.30;;;26.70;91.40;;;;;;5090665;28;20059;-67
2023/06/13 10:52:28;;;;;;;8.00;4.78;;;26.80;91.40;;;;;;5091959;28;20384;-64
2023/06/13 10:55:37;;;;;;;10.07;6.30;;;26.80;91.40;;;;;;5091895;28;20046;-66
2023/06/13 10:58:42;;;;;;;16.02;5.75;;;26.80;91.20;;;;;;5092208;28;20391;-67
2023/06/13 11:01:46;;;;;;;9.23;5.65;;;26.80;91.40;;;;;;5091923;28;20050;-62
2023/06/13 11:04:52;;;;;;;10.80;6.55;;;26.90;91.70;;;;;;5092177;28;20039;-62
2023/06/13 11:07:58;;;;;;;9.73;6.22;;;26.80;92.00;;;;;;5079617;28;20522;-62
2023/06/13 11:11:02;;;;;;;11.00;6.57;;;26.80;92.20;;;;;;5091962;28;20051;-64
2023/06/13 11:14:07;;;;;;;9.10;6.80;;;26.90;92.30;;;;;;5091701;28;20403;-61
2023/06/13 11:17:11;;;;;;;7.78;6.00;;;27.00;92.40;;;;;;5091744;28;20039;-63
2023/06/13 11:20:22;;;;;;;11.05;6.03;;;26.90;92.40;;;;;;5091620;28;20499;-62
2023/06/13 11:23:35;;;;;;;10.97;6.77;;;27.00;92.50;;;;;;5079548;28;20499;-63
2023/06/13 11:26:39;;;;;;;15.32;8.30;;;26.90;92.40;;;;;;5091727;28;20047;-63
2023/06/13 11:29:43;;;;;;;12.10;6.72;;;26.90;92.40;;;;;;5091637;28;20047;-61
2023/06/13 11:32:48;;;;;;;18.48;8.40;;;26.80;92.40;;;;;;5091678;28;20070;-62
2023/06/13 11:35:56;;;;;;;9.55;6.70;;;26.80;92.70;;;;;;5091517;28;20051;-62
2023/06/13 11:39:03;;;;;;;13.93;7.00;;;26.70;92.80;;;;;;5091493;28;20498;-63
2023/06/13 11:42:08;;;;;;;14.35;8.20;;;26.70;93.00;;;;;;5091519;28;20043;-62
2023/06/13 11:45:13;;;;;;;15.90;7.53;;;26.70;93.20;;;;;;5091479;28;20047;-64
2023/06/13 11:48:22;;;;;;;10.65;7.95;;;26.70;93.30;;;;;;5091224;28;20486;-63
2023/06/13 11:51:33;;;;;;;16.27;7.63;;;26.70;93.70;;;;;;5091223;28;20059;-63
2023/06/13 11:54:40;;;;;;;10.35;6.40;;;26.60;94.10;;;;;;5091599;28;20055;-62
2023/06/13 11:57:45;;;;;;;14.73;6.30;;;26.50;94.10;;;;;;5091140;28;20042;-62
2023/06/13 12:00:53;;;;;;;9.43;5.70;;;26.50;94.10;;;;;;5091417;28;20051;-63
2023/06/13 12:04:00;;;;;;;9.48;5.10;;;26.50;94.20;;;;;;5091341;28;20047;-62
2023/06/13 12:07:06;;;;;;;8.32;5.00;;;26.40;94.20;;;;;;5091299;28;20043;-63
2023/06/13 12:10:11;;;;;;;20.20;5.55;;;26.40;94.30;;;;;;5090960;28;20051;-63
2023/06/13 12:13:18;;;;;;;10.18;5.20;;;26.40;94.50;;;;;;5090894;28;20122;-63
2023/06/13 12:16:23;;;;;;;8.45;5.72;;;26.40;94.60;;;;;;5091222;28;20503;-62
2023/06/13 12:19:27;;;;;;;6.85;4.70;;;26.40;94.70;;;;;;5091372;28;20047;-62
2023/06/13 12:22:31;;;;;;;8.80;5.38;;;26.40;94.60;;;;;;5090988;28;20054;-66
2023/06/13 12:25:35;;;;;;;9.90;5.72;;;26.40;94.50;;;;;;5090987;28;20519;-64
2023/06/13 12:28:42;;;;;;;13.02;6.47;;;26.40;94.90;;;;;;5090617;28;20070;-63
2023/06/13 12:31:47;;;;;;;9.10;6.25;;;26.40;95.20;;;;;;5090807;28;20047;-64
2023/06/13 12:34:51;;;;;;;15.75;5.72;;;26.40;95.20;;;;;;5091056;28;20459;-64
2023/06/13 12:37:58;;;;;;;11.60;6.05;;;26.50;95.10;;;;;;5094294;28;20039;-64
2023/06/13 12:41:14;;;;;;;9.45;5.63;;;26.50;95.00;;;;;;5097768;28;20053;-63
2023/06/13 12:44:21;;;;;;;6.95;4.90;;;26.50;94.80;;;;;;5097800;28;20051;-65
2023/06/13 12:47:26;;;;;;;14.05;5.20;;;26.60;94.60;;;;;;5097627;28;20056;-64
2023/06/13 12:50:36;;;;;;;9.60;5.03;;;26.70;94.30;;;;;;5097697;28;20043;-64
2023/06/13 12:53:40;;;;;;;12.70;4.72;;;26.70;94.00;;;;;;5097423;28;20047;-64
2023/06/13 12:57:00;;;;;;;9.90;4.80;;;26.80;93.80;;;;;;5097622;28;20042;-64
2023/06/13 13:00:08;;;;;;;7.78;4.82;;;26.90;94.00;;;;;;5097583;28;20035;-65
2023/06/13 13:03:12;;;;;;;6.65;4.72;;;27.00;94.10;;;;;;5085876;28;20046;-64
2023/06/13 13:06:17;;;;;;;10.35;4.78;;;27.00;94.00;;;;;;5097317;28;20110;-64
2023/06/13 13:09:22;;;;;;;7.47;3.80;;;27.00;94.00;;;;;;5097093;28;20047;-65
2023/06/13 13:12:26;;;;;;;10.57;5.18;;;27.00;93.80;;;;;;5097293;28;20043;-65
2023/06/13 13:15:31;;;;;;;8.45;5.32;;;27.10;93.50;;;;;;5097620;28;20047;-67
2023/06/13 13:18:35;;;;;;;7.15;4.22;;;27.10;93.30;;;;;;5098061;28;20063;-65
2023/06/13 13:21:40;;;;;;;7.35;4.43;;;27.10;93.20;;;;;;5097158;28;20043;-66
2023/06/13 13:24:44;;;;;;;11.60;4.35;;;27.10;93.30;;;;;;5097286;28;20054;-66
2023/06/13 13:27:48;;;;;;;13.35;5.68;;;27.10;93.40;;;;;;5095848;28;20050;-64
2023/06/13 13:30:51;;;;;;;7.60;4.55;;;27.10;93.30;;;;;;5096990;28;20051;-64
2023/06/13 13:33:55;;;;;;;7.70;4.32;;;27.20;93.30;;;;;;5096866;28;20039;-64
2023/06/13 13:36:59;;;;;;;9.52;4.80;;;27.20;93.00;;;;;;5096959;28;20051;-64
2023/06/13 13:40:04;;;;;;;8.10;4.85;;;27.30;93.00;;;;;;5097121;28;20219;-64
2023/06/13 13:43:09;;;;;;;10.20;4.93;;;27.30;93.00;;;;;;5097131;28;20036;-63
2023/06/13 13:46:13;;;;;;;5.82;4.00;;;27.30;92.90;;;;;;5096991;28;20078;-66
2023/06/13 13:49:17;;;;;;;5.55;4.43;;;27.30;92.60;;;;;;5095136;28;20059;-64
2023/06/13 13:52:21;;;;;;;5.45;3.75;;;27.30;92.60;;;;;;5093873;28;20043;-64
2023/06/13 13:55:24;;;;;;;6.00;3.38;;;27.40;92.70;;;;;;5093557;28;20043;-64
2023/06/13 13:58:28;;;;;;;8.02;4.25;;;27.40;92.60;;;;;;5093339;28;20047;-65
2023/06/13 14:01:32;;;;;;;3.75;3.28;;;27.40;92.30;;;;;;5093488;28;20047;-65
2023/06/13 14:04:36;;;;;;;6.00;4.30;;;27.40;92.10;;;;;;5093360;28;20051;-64
2023/06/13 14:07:42;;;;;;;4.20;3.35;;;27.30;91.70;;;;;;5093252;28;20051;-64
2023/06/13 14:10:46;;;;;;;8.07;4.40;;;27.30;91.90;;;;;;5093077;28;20051;-63
2023/06/13 14:13:50;;;;;;;6.35;3.53;;;27.40;91.90;;;;;;5093358;28;20047;-66
2023/06/13 14:16:53;;;;;;;6.35;3.58;;;27.30;92.00;;;;;;5093322;28;20055;-66
2023/06/13 14:19:57;;;;;;;4.95;3.90;;;27.30;92.10;;;;;;5093306;28;20494;-66
2023/06/13 14:23:01;;;;;;;9.50;4.00;;;27.30;92.10;;;;;;5093546;28;20054;-67
2023/06/13 14:26:05;;;;;;;5.35;3.60;;;27.30;92.10;;;;;;5092605;28;20051;-67
2023/06/13 14:29:09;;;;;;;6.10;3.47;;;27.20;92.20;;;;;;5093199;28;20604;-66
2023/06/13 14:32:13;;;;;;;8.27;3.28;;;27.10;92.10;;;;;;5092765;28;20067;-64
2023/06/13 14:35:17;;;;;;;9.38;3.92;;;27.00;92.40;;;;;;5092835;28;20047;-67
2023/06/13 14:38:21;;;;;;;8.43;4.30;;;27.00;92.80;;;;;;5092493;28;20047;-68
2023/06/13 14:41:25;;;;;;;8.00;3.95;;;26.90;94.40;;;;;;5092498;28;20051;-67
2023/06/13 14:44:29;;;;;;;16.65;4.28;;;26.80;95.10;;;;;;5092424;28;20039;-66
2023/06/13 14:47:34;;;;;;;11.20;4.05;;;26.70;95.60;;;;;;5092411;28;20395;-66
2023/06/13 14:50:39;;;;;;;9.38;4.07;;;26.50;95.40;;;;;;5092371;28;20601;-67
2023/06/13 14:53:43;;;;;;;13.73;6.22;;;26.40;96.10;;;;;;5092666;28;20042;-67
2023/06/13 14:56:46;;;;;;;14.65;4.70;;;26.40;96.50;;;;;;5092708;28;20067;-67
2023/06/13 14:59:50;;;;;;;11.02;4.43;;;26.40;96.80;;;;;;5091947;28;20510;-66
2023/06/13 15:02:55;;;;;;;22.75;10.63;;;26.30;96.40;;;;;;5079887;28;20047;-67
2023/06/13 15:05:59;;;;;;;8.65;5.30;;;26.30;96.90;;;;;;5091110;28;20039;-67
2023/06/13 15:09:03;;;;;;;5.25;4.05;;;26.30;97.10;;;;;;5091972;28;20055;-67
2023/06/13 15:12:09;;;;;;;9.90;5.25;;;26.20;96.50;;;;;;5092493;28;20043;-67
2023/06/13 15:15:13;;;;;;;8.15;4.05;;;26.30;96.50;;;;;;5091724;28;20066;-67
2023/06/13 15:18:17;;;;;;;9.15;4.57;;;26.30;96.00;;;;;;5092111;28;20047;-67
2023/06/13 15:21:21;;;;;;;6.22;3.13;;;26.30;95.80;;;;;;5091886;28;20600;-67
2023/06/13 15:24:26;;;;;;;5.00;3.30;;;26.40;95.00;;;;;;5091926;28;20043;-68
2023/06/13 15:27:30;;;;;;;7.82;3.33;;;26.40;94.50;;;;;;5091586;28;20495;-68
2023/06/13 15:30:34;;;;;;;6.28;3.42;;;26.40;94.10;;;;;;5091784;28;20051;-67
2023/06/13 15:33:40;;;;;;;4.13;3.25;;;26.50;93.90;;;;;;5092175;28;20051;-69
2023/06/13 15:36:44;;;;;;;23.98;7.47;;;26.50;93.20;;;;;;5091719;28;20384;-66
2023/06/13 15:39:48;;;;;;;9.73;5.78;;;26.60;97.10;;;;;;5091635;28;20067;-68
2023/06/13 15:42:53;;;;;;;8.23;5.80;;;26.60;96.80;;;;;;5091539;28;20043;-68
2023/06/13 15:45:56;;;;;;;10.10;5.30;;;26.50;95.50;;;;;;5091461;28;20063;-68
2023/06/13 15:49:02;;;;;;;11.57;7.38;;;26.50;95.60;;;;;;5091387;28;20054;-68
2023/06/13 15:52:06;;;;;;;6.68;5.50;;;26.40;96.30;;;;;;5091508;28;20047;-68
2023/06/13 15:55:10;;;;;;;10.13;5.32;;;26.20;95.40;;;;;;5091543;28;20088;-66
2023/06/13 15:58:14;;;;;;;9.02;5.28;;;26.10;95.20;;;;;;5091573;28;20035;-66
2023/06/13 16:01:20;;;;;;;8.35;5.78;;;26.00;95.60;;;;;;5091499;28;20055;-68
2023/06/13 16:04:24;;;;;;;8.15;5.10;;;26.00;95.80;;;;;;5091165;28;20419;-66
2023/06/13 16:07:28;;;;;;;9.80;4.28;;;26.00;95.30;;;;;;5090855;28;20051;-66
2023/06/13 16:10:32;;;;;;;6.93;4.53;;;25.90;94.30;;;;;;5091078;28;20051;-68
2023/06/13 16:13:35;;;;;;;5.20;4.30;;;25.80;94.50;;;;;;5090238;28;20058;-66
2023/06/13 16:16:39;;;;;;;10.88;4.75;;;25.70;94.90;;;;;;5091139;28;20047;-66
2023/06/13 16:19:44;;;;;;;8.02;4.55;;;25.70;94.60;;;;;;5091162;28;20055;-66
2023/06/13 16:22:48;;;;;;;8.18;4.13;;;25.70;94.70;;;;;;5091041;28;20047;-66
2023/06/13 16:25:52;;;;;;;7.40;5.00;;;25.70;93.40;;;;;;5090929;28;20273;-67